Tionea — ISYR — position and weather

sailwx.info

Track history (hours):
 
Tides and Currents Weather Stations Pressure Air Temp Water Temp Dewpoint Dewpoint Depression Visibility Wind Speed Wind Dir Waves Ship Positions

Tionea

Last reported at 2015-Aug-17 14:27 UTC. Time now 2015-Aug-31 13:15 UTC.
Position N 40°48' E 013°39'.
Warning: this ship's position is 13 days out of date.

Length 52 m.

MMSI: 247159400.

Date/timePositionNaut miles runAvg speedWind from/ knotsBaromVisibWave heightAir tempDewpointWater temp
2015-Aug-17 14:27N 40°48' E 013°39'1111.9
2015-Aug-17 13:33N 40°46' E 013°53'1 0.5
2015-Aug-17 12:33N 40°45' E 013°54'0 0.0
2015-Aug-17 11:33N 40°45' E 013°54'9 9.5
2015-Aug-17 10:33N 40°46' E 014°06'11 9.7
2015-Aug-17 09:25N 40°46' E 014°21'7 6.9
2015-Aug-17 08:28N 40°43' E 014°28'0 0.0
2015-Aug-17 07:33N 40°43' E 014°28'0 0.0
2015-Aug-17 06:19N 40°43' E 014°28'0 0.0
2015-Aug-17 05:11N 40°43' E 014°28'0 0.0
2015-Aug-17 04:26N 40°43' E 014°28'0 0.0
2015-Aug-17 03:33N 40°43' E 014°28'0 0.0
2015-Aug-17 02:33N 40°43' E 014°28'0 0.0
2015-Aug-17 00:23N 40°43' E 014°28'0 0.0
2015-Aug-16 23:32N 40°43' E 014°28'0 0.0
2015-Aug-16 22:33N 40°43' E 014°28'0 0.0
2015-Aug-16 21:33N 40°43' E 014°28'0 0.0
2015-Aug-16 20:18N 40°43' E 014°28'0 0.0
2015-Aug-16 18:16N 40°43' E 014°28'0 0.0
2015-Aug-16 17:09N 40°43' E 014°28'0 0.0
2015-Aug-16 16:33N 40°43' E 014°28'0 0.0
2015-Aug-16 15:33N 40°43' E 014°28'0 0.0
2015-Aug-16 14:33N 40°43' E 014°28'0 0.0
2015-Aug-16 13:33N 40°43' E 014°28'0 0.0
2015-Aug-16 12:30N 40°43' E 014°28'0 0.0
2015-Aug-16 11:20N 40°43' E 014°28'0 0.0
2015-Aug-16 10:29N 40°43' E 014°28'0 0.0
2015-Aug-16 09:32N 40°43' E 014°28'0 0.0
2015-Aug-16 08:33N 40°43' E 014°28'0 0.0
2015-Aug-15 20:25N 40°43' E 014°28'0 0.0
2015-Aug-15 19:33N 40°43' E 014°28'26 3.8
2015-Aug-15 12:33N 40°45' E 013°54'0 0.0
2015-Aug-15 11:34N 40°45' E 013°54'3 3.4
2015-Aug-15 10:33N 40°44' E 013°58'1211.4
2015-Aug-15 09:33N 40°36' E 014°08'7 0.7
2015-Aug-14 23:31N 40°32' E 014°16'5 0.1
2015-Aug-13 09:19N 40°34' E 014°23'6 2.1
2015-Aug-13 06:22N 40°32' E 014°15'0 0.0
2015-Aug-13 04:33N 40°32' E 014°15'0 0.0
2015-Aug-13 03:30N 40°32' E 014°15'0 0.0
2015-Aug-13 01:30N 40°32' E 014°15'5 0.4
2015-Aug-12 13:32N 40°37' E 014°18'4 4.4
2015-Aug-12 12:32N 40°38' E 014°23'0 0.0
2015-Aug-12 11:33N 40°38' E 014°23'0 0.0
2015-Aug-12 10:34N 40°38' E 014°23'0 0.0
2015-Aug-12 09:33N 40°38' E 014°23'0 0.0
2015-Aug-12 08:33N 40°38' E 014°23'0 0.0
2015-Aug-12 07:33N 40°38' E 014°23'0 0.0
2015-Aug-12 06:33N 40°38' E 014°23'0 0.0
2015-Aug-12 05:33N 40°38' E 014°23'0 0.0
2015-Aug-12 04:33N 40°38' E 014°23'0 0.0
2015-Aug-12 03:33N 40°38' E 014°23'0 0.0
2015-Aug-12 02:33N 40°38' E 014°23'0 0.0
2015-Aug-12 01:33N 40°38' E 014°23'0 0.0
2015-Aug-12 00:33N 40°38' E 014°23'0 0.0
2015-Aug-11 23:33N 40°38' E 014°23'0 0.0
2015-Aug-11 22:33N 40°38' E 014°23'0 0.0
2015-Aug-11 21:33N 40°38' E 014°23'0 0.0
2015-Aug-11 20:31N 40°38' E 014°23'0 0.0
2015-Aug-11 19:34N 40°38' E 014°23'0 0.0
2015-Aug-11 18:32N 40°38' E 014°23'0 0.0
2015-Aug-11 17:33N 40°38' E 014°23'0 0.0
2015-Aug-11 16:32N 40°38' E 014°23'0 0.0
2015-Aug-11 15:33N 40°38' E 014°23'0 0.0
2015-Aug-11 14:33N 40°38' E 014°23'2 1.7
2015-Aug-11 13:34N 40°40' E 014°23'10 9.7
2015-Aug-11 12:33N 40°48' E 014°15'2 0.9
2015-Aug-11 10:13N 40°50' E 014°14'0 0.0
2015-Aug-11 09:33N 40°50' E 014°14'0 0.0
2015-Aug-11 07:31N 40°50' E 014°14'0 0.0
2015-Aug-11 06:33N 40°50' E 014°14'0 0.0
2015-Aug-11 05:16N 40°50' E 014°14'0 0.0
2015-Aug-11 04:21N 40°50' E 014°14'0 0.0
2015-Aug-11 03:20N 40°50' E 014°14'0 0.0
2015-Aug-11 01:33N 40°50' E 014°14'0 0.0
2015-Aug-11 00:15N 40°50' E 014°14'0 0.0
2015-Aug-10 22:33N 40°50' E 014°14'0 0.0
2015-Aug-10 21:33N 40°50' E 014°14'0 0.0
2015-Aug-10 20:21N 40°50' E 014°14'0 0.0
2015-Aug-10 18:24N 40°50' E 014°14'0 0.0
2015-Aug-10 15:31N 40°50' E 014°14'0 0.0
2015-Aug-10 12:22N 40°50' E 014°14'0 0.0
2015-Aug-10 08:08N 40°50' E 014°14'0 0.0
2015-Aug-10 07:30N 40°50' E 014°14'1 0.2
2015-Aug-10 03:33N 40°49' E 014°14'1312.5
2015-Aug-10 02:34N 40°41' E 014°01'1211.8
2015-Aug-10 01:32N 40°39' E 013°46'192 5.2
2015-Aug-08 12:34N 41°04' E 009°33'15 0.7
2015-Aug-07 15:14N 40°51' E 009°43'0 0.0
2015-Aug-07 14:33N 40°51' E 009°43'  
Track history (hours):
 
Tides and Currents Weather Stations Pressure Air Temp Water Temp Dewpoint Dewpoint Depression Visibility Wind Speed Wind Dir Waves Ship Positions

Tionea

Last reported at 2015-Aug-17 14:27 UTC. Time now 2015-Aug-31 13:15 UTC.
Position N 40°48' E 013°39'.
Warning: this ship's position is 13 days out of date.

Length 52 m.

MMSI: 247159400.

Date/timePositionNaut miles runAvg speedWind from/ knotsBaromVisibWave heightAir tempDewpointWater temp
2015-Aug-17 14:27N 40°48' E 013°39'1111.9
2015-Aug-17 13:33N 40°46' E 013°53'1 0.5
2015-Aug-17 12:33N 40°45' E 013°54'0 0.0
2015-Aug-17 11:33N 40°45' E 013°54'9 9.5
2015-Aug-17 10:33N 40°46' E 014°06'11 9.7
2015-Aug-17 09:25N 40°46' E 014°21'7 6.9
2015-Aug-17 08:28N 40°43' E 014°28'0 0.0
2015-Aug-17 07:33N 40°43' E 014°28'0 0.0
2015-Aug-17 06:19N 40°43' E 014°28'0 0.0
2015-Aug-17 05:11N 40°43' E 014°28'0 0.0
2015-Aug-17 04:26N 40°43' E 014°28'0 0.0
2015-Aug-17 03:33N 40°43' E 014°28'0 0.0
2015-Aug-17 02:33N 40°43' E 014°28'0 0.0
2015-Aug-17 00:23N 40°43' E 014°28'0 0.0
2015-Aug-16 23:32N 40°43' E 014°28'0 0.0
2015-Aug-16 22:33N 40°43' E 014°28'0 0.0
2015-Aug-16 21:33N 40°43' E 014°28'0 0.0
2015-Aug-16 20:18N 40°43' E 014°28'0 0.0
2015-Aug-16 18:16N 40°43' E 014°28'0 0.0
2015-Aug-16 17:09N 40°43' E 014°28'0 0.0
2015-Aug-16 16:33N 40°43' E 014°28'0 0.0
2015-Aug-16 15:33N 40°43' E 014°28'0 0.0
2015-Aug-16 14:33N 40°43' E 014°28'0 0.0
2015-Aug-16 13:33N 40°43' E 014°28'0 0.0
2015-Aug-16 12:30N 40°43' E 014°28'0 0.0
2015-Aug-16 11:20N 40°43' E 014°28'0 0.0
2015-Aug-16 10:29N 40°43' E 014°28'0 0.0
2015-Aug-16 09:32N 40°43' E 014°28'0 0.0
2015-Aug-16 08:33N 40°43' E 014°28'0 0.0
2015-Aug-15 20:25N 40°43' E 014°28'0 0.0
2015-Aug-15 19:33N 40°43' E 014°28'26 3.8
2015-Aug-15 12:33N 40°45' E 013°54'0 0.0
2015-Aug-15 11:34N 40°45' E 013°54'3 3.4
2015-Aug-15 10:33N 40°44' E 013°58'1211.4
2015-Aug-15 09:33N 40°36' E 014°08'7 0.7
2015-Aug-14 23:31N 40°32' E 014°16'5 0.1
2015-Aug-13 09:19N 40°34' E 014°23'6 2.1
2015-Aug-13 06:22N 40°32' E 014°15'0 0.0
2015-Aug-13 04:33N 40°32' E 014°15'0 0.0
2015-Aug-13 03:30N 40°32' E 014°15'0 0.0
2015-Aug-13 01:30N 40°32' E 014°15'5 0.4
2015-Aug-12 13:32N 40°37' E 014°18'4 4.4
2015-Aug-12 12:32N 40°38' E 014°23'0 0.0
2015-Aug-12 11:33N 40°38' E 014°23'0 0.0
2015-Aug-12 10:34N 40°38' E 014°23'0 0.0
2015-Aug-12 09:33N 40°38' E 014°23'0 0.0
2015-Aug-12 08:33N 40°38' E 014°23'0 0.0
2015-Aug-12 07:33N 40°38' E 014°23'0 0.0
2015-Aug-12 06:33N 40°38' E 014°23'0 0.0
2015-Aug-12 05:33N 40°38' E 014°23'0 0.0
2015-Aug-12 04:33N 40°38' E 014°23'0 0.0
2015-Aug-12 03:33N 40°38' E 014°23'0 0.0
2015-Aug-12 02:33N 40°38' E 014°23'0 0.0
2015-Aug-12 01:33N 40°38' E 014°23'0 0.0
2015-Aug-12 00:33N 40°38' E 014°23'0 0.0
2015-Aug-11 23:33N 40°38' E 014°23'0 0.0
2015-Aug-11 22:33N 40°38' E 014°23'0 0.0
2015-Aug-11 21:33N 40°38' E 014°23'0 0.0
2015-Aug-11 20:31N 40°38' E 014°23'0 0.0
2015-Aug-11 19:34N 40°38' E 014°23'0 0.0
2015-Aug-11 18:32N 40°38' E 014°23'0 0.0
2015-Aug-11 17:33N 40°38' E 014°23'0 0.0
2015-Aug-11 16:32N 40°38' E 014°23'0 0.0
2015-Aug-11 15:33N 40°38' E 014°23'0 0.0
2015-Aug-11 14:33N 40°38' E 014°23'2 1.7
2015-Aug-11 13:34N 40°40' E 014°23'10 9.7
2015-Aug-11 12:33N 40°48' E 014°15'2 0.9
2015-Aug-11 10:13N 40°50' E 014°14'0 0.0
2015-Aug-11 09:33N 40°50' E 014°14'0 0.0
2015-Aug-11 07:31N 40°50' E 014°14'0 0.0
2015-Aug-11 06:33N 40°50' E 014°14'0 0.0
2015-Aug-11 05:16N 40°50' E 014°14'0 0.0
2015-Aug-11 04:21N 40°50' E 014°14'0 0.0
2015-Aug-11 03:20N 40°50' E 014°14'0 0.0
2015-Aug-11 01:33N 40°50' E 014°14'0 0.0
2015-Aug-11 00:15N 40°50' E 014°14'0 0.0
2015-Aug-10 22:33N 40°50' E 014°14'0 0.0
2015-Aug-10 21:33N 40°50' E 014°14'0 0.0
2015-Aug-10 20:21N 40°50' E 014°14'0 0.0
2015-Aug-10 18:24N 40°50' E 014°14'0 0.0
2015-Aug-10 15:31N 40°50' E 014°14'0 0.0
2015-Aug-10 12:22N 40°50' E 014°14'0 0.0
2015-Aug-10 08:08N 40°50' E 014°14'0 0.0
2015-Aug-10 07:30N 40°50' E 014°14'1 0.2
2015-Aug-10 03:33N 40°49' E 014°14'1312.5
2015-Aug-10 02:34N 40°41' E 014°01'1211.8
2015-Aug-10 01:32N 40°39' E 013°46'192 5.2
2015-Aug-08 12:34N 41°04' E 009°33'15 0.7
2015-Aug-07 15:14N 40°51' E 009°43'0 0.0
2015-Aug-07 14:33N 40°51' E 009°43'  

Dump ship's entire track history